Time,TemperatureF,DewpointF,PressureIn,WindDirection,WindDirectionDegrees,WindSpeedMPH,WindSpeedGustMPH,Humidity,HourlyPrecipIn,Conditions,Clouds,dailyrainin,SoftwareType,DateUTC
2014-11-24 00:02:00,48.4,47.3,29.53,South,180,3.8,10.7,96,0.08,,,0.01,,2014-11-24 05:02:00,
2014-11-24 00:08:00,48.4,47.3,29.51,South,180,2.2,5.4,96,0.09,,,0.02,,2014-11-24 05:08:00,
2014-11-24 00:14:00,48.4,47.3,29.49,SE,135,2.2,4.5,96,0.09,,,0.02,,2014-11-24 05:14:00,
2014-11-24 00:19:00,48.4,47.6,29.49,SE,135,3.1,4.5,97,0.08,,,0.02,,2014-11-24 05:19:00,
2014-11-24 00:25:00,48.6,47.7,29.48,East,90,2.2,3.8,97,0.08,,,0.02,,2014-11-24 05:25:00,
2014-11-24 00:31:00,48.7,47.9,29.48,SE,135,3.1,5.4,97,0.07,,,0.02,,2014-11-24 05:31:00,
2014-11-24 00:36:00,49.1,48.0,29.47,East,90,5.4,9.2,96,0.07,,,0.02,,2014-11-24 05:36:00,
2014-11-24 00:42:00,49.3,48.5,29.47,SW,225,3.8,6.9,97,0.06,,,0.02,,2014-11-24 05:42:00,
2014-11-24 00:48:00,49.6,48.8,29.47,East,90,3.8,6.0,97,0.05,,,0.02,,2014-11-24 05:48:00,
2014-11-24 00:53:00,49.8,49.0,29.46,SSE,157,6.9,12.1,97,0.05,,,0.04,,2014-11-24 05:53:00,
2014-11-24 00:59:00,50.2,49.4,29.46,SE,135,5.4,10.7,97,0.05,,,0.05,,2014-11-24 05:59:00,
2014-11-24 01:05:00,50.4,49.5,29.46,SE,135,3.8,6.0,97,0.02,,,0.05,,2014-11-24 06:05:00,
2014-11-24 01:10:00,50.4,49.5,29.46,South,180,4.5,8.3,97,0.04,,,0.06,,2014-11-24 06:10:00,
2014-11-24 01:16:00,50.5,49.4,29.45,SE,135,6.9,10.7,96,0.04,,,0.06,,2014-11-24 06:16:00,
2014-11-24 01:22:00,50.7,49.6,29.44,South,180,3.8,6.0,96,0.05,,,0.07,,2014-11-24 06:22:00,
2014-11-24 01:27:00,50.9,49.5,29.44,SE,135,3.8,6.0,95,0.05,,,0.07,,2014-11-24 06:27:00,
2014-11-24 01:33:00,50.9,49.5,29.43,South,180,4.5,6.9,95,0.05,,,0.07,,2014-11-24 06:33:00,
2014-11-24 01:39:00,50.9,49.5,29.43,South,180,5.4,8.3,95,0.05,,,0.07,,2014-11-24 06:39:00,
2014-11-24 01:44:00,51.1,49.7,29.43,South,180,5.4,10.7,95,0.05,,,0.07,,2014-11-24 06:44:00,
2014-11-24 01:50:00,51.1,49.7,29.42,South,180,6.9,13.0,95,0.04,,,0.07,,2014-11-24 06:50:00,
2014-11-24 01:56:00,51.1,49.7,29.43,SE,135,3.1,7.6,95,0.04,,,0.07,,2014-11-24 06:56:00,
2014-11-24 02:01:00,51.1,49.7,29.43,East,90,2.2,3.8,95,0.02,,,0.07,,2014-11-24 07:01:00,
2014-11-24 02:07:00,51.1,49.7,29.41,South,180,1.6,3.1,95,0.02,,,0.07,,2014-11-24 07:07:00,
2014-11-24 02:13:00,51.3,49.9,29.42,South,180,2.2,6.0,95,0.01,,,0.07,,2014-11-24 07:13:00,
2014-11-24 02:18:00,51.3,49.9,29.40,East,90,0.7,1.6,95,0.01,,,0.07,,2014-11-24 07:18:00,
2014-11-24 02:24:00,51.4,50.1,29.41,East,90,2.2,3.1,95,0.00,,,0.07,,2014-11-24 07:24:00,
2014-11-24 02:30:00,51.6,50.2,29.40,South,180,3.8,6.9,95,0.00,,,0.07,,2014-11-24 07:30:00,
2014-11-24 02:35:00,52.0,50.6,29.40,SE,135,2.2,3.1,95,0.00,,,0.07,,2014-11-24 07:35:00,
2014-11-24 02:41:00,52.2,50.5,29.39,ESE,112,3.8,6.0,94,0.00,,,0.07,,2014-11-24 07:41:00,
2014-11-24 02:47:00,52.3,50.7,29.39,SW,225,3.8,6.0,94,0.00,,,0.07,,2014-11-24 07:47:00,
2014-11-24 02:52:00,52.5,50.8,29.39,SE,135,3.1,5.4,94,0.00,,,0.07,,2014-11-24 07:52:00,
2014-11-24 02:58:00,52.7,50.4,29.38,SSE,157,0.7,1.6,92,0.00,,,0.07,,2014-11-24 07:58:00,
2014-11-24 03:04:00,52.5,50.6,29.38,South,180,1.6,2.2,93,0.00,,,0.07,,2014-11-24 08:04:00,
2014-11-24 03:09:00,52.7,50.4,29.38,SE,135,2.2,3.8,92,0.00,,,0.07,,2014-11-24 08:09:00,
2014-11-24 03:15:00,53.2,51.0,29.37,SE,135,3.1,5.4,92,0.00,,,0.07,,2014-11-24 08:15:00,
2014-11-24 03:21:00,53.2,51.0,29.37,SE,135,1.6,3.1,92,0.00,,,0.07,,2014-11-24 08:21:00,
2014-11-24 03:26:00,53.4,51.2,29.38,SE,135,2.2,3.1,92,0.00,,,0.07,,2014-11-24 08:26:00,
2014-11-24 03:32:00,53.2,50.7,29.38,South,180,0.7,1.6,91,0.00,,,0.07,,2014-11-24 08:32:00,
2014-11-24 03:38:00,53.2,51.0,29.38,ESE,112,1.6,3.1,92,0.00,,,0.07,,2014-11-24 08:38:00,
2014-11-24 03:43:00,53.1,50.8,29.37,SE,135,0.7,3.1,92,0.00,,,0.07,,2014-11-24 08:43:00,
2014-11-24 03:49:00,52.9,50.6,29.37,South,180,1.6,2.2,92,0.00,,,0.07,,2014-11-24 08:49:00,
2014-11-24 03:55:00,52.7,50.7,29.37,SW,225,0.7,4.5,93,0.00,,,0.07,,2014-11-24 08:55:00,
2014-11-24 04:00:00,52.7,50.7,29.37,South,180,1.6,2.2,93,0.00,,,0.07,,2014-11-24 09:00:00,
2014-11-24 04:06:00,52.7,51.0,29.36,SSE,157,0.7,1.6,94,0.00,,,0.07,,2014-11-24 09:06:00,
2014-11-24 04:12:00,52.7,51.0,29.37,ESE,112,0.7,2.2,94,0.00,,,0.07,,2014-11-24 09:12:00,
2014-11-24 04:17:00,52.9,51.2,29.37,East,90,1.6,3.1,94,0.00,,,0.07,,2014-11-24 09:17:00,
2014-11-24 04:23:00,53.1,51.7,29.36,East,90,2.2,3.1,95,0.00,,,0.07,,2014-11-24 09:23:00,
2014-11-24 04:29:00,53.2,51.8,29.36,East,90,1.6,3.8,95,0.00,,,0.07,,2014-11-24 09:29:00,
2014-11-24 04:34:00,53.4,52.0,29.36,SE,135,1.6,2.2,95,0.00,,,0.07,,2014-11-24 09:34:00,
2014-11-24 04:40:00,53.6,52.2,29.36,SE,135,1.6,3.1,95,0.00,,,0.07,,2014-11-24 09:40:00,
2014-11-24 04:46:00,53.8,52.4,29.37,SE,135,0.7,1.6,95,0.00,,,0.07,,2014-11-24 09:46:00,
2014-11-24 04:51:00,53.8,52.4,29.37,South,180,3.1,5.4,95,0.00,,,0.07,,2014-11-24 09:51:00,
2014-11-24 04:57:00,54.0,52.6,29.37,East,90,1.6,2.2,95,0.00,,,0.07,,2014-11-24 09:57:00,
2014-11-24 05:03:00,54.1,52.7,29.37,South,180,2.2,3.8,95,0.00,,,0.07,,2014-11-24 10:03:00,
2014-11-24 05:08:00,54.1,52.7,29.37,SE,135,3.1,5.4,95,0.00,,,0.07,,2014-11-24 10:08:00,
2014-11-24 05:14:00,54.3,52.9,29.37,South,180,0.7,1.6,95,0.00,,,0.07,,2014-11-24 10:14:00,
2014-11-24 05:20:00,54.3,52.9,29.37,South,180,2.2,3.8,95,0.00,,,0.07,,2014-11-24 10:20:00,
2014-11-24 05:25:00,54.7,53.3,29.37,South,180,2.2,3.8,95,0.00,,,0.07,,2014-11-24 10:25:00,
2014-11-24 05:31:00,55.2,53.8,29.37,East,90,0.0,1.6,95,0.00,,,0.07,,2014-11-24 10:31:00,
2014-11-24 05:37:00,55.6,54.2,29.38,South,180,0.0,0.7,95,0.00,,,0.07,,2014-11-24 10:37:00,
2014-11-24 05:42:00,55.4,53.7,29.38,NW,315,0.7,1.6,94,0.00,,,0.07,,2014-11-24 10:42:00,
2014-11-24 05:48:00,55.0,53.3,29.38,SE,135,0.7,1.6,94,0.00,,,0.07,,2014-11-24 10:48:00,
2014-11-24 05:54:00,54.7,53.0,29.39,West,270,0.7,1.6,94,0.00,,,0.07,,2014-11-24 10:54:00,
2014-11-24 05:59:00,54.3,52.6,29.39,South,180,0.7,1.6,94,0.00,,,0.07,,2014-11-24 10:59:00,
2014-11-24 06:05:00,54.3,52.6,29.39,SE,135,0.0,0.7,94,0.00,,,0.07,,2014-11-24 11:05:00,
2014-11-24 06:11:00,54.9,53.5,29.40,SE,135,0.0,0.7,95,0.00,,,0.07,,2014-11-24 11:11:00,
2014-11-24 06:16:00,54.9,53.5,29.39,NW,315,0.7,1.6,95,0.00,,,0.07,,2014-11-24 11:16:00,
2014-11-24 06:22:00,55.6,54.2,29.39,East,90,1.6,4.5,95,0.00,,,0.07,,2014-11-24 11:22:00,
2014-11-24 06:28:00,56.8,54.8,29.39,SE,135,0.7,2.2,93,0.00,,,0.07,,2014-11-24 11:28:00,
2014-11-24 06:33:00,57.6,54.6,29.39,SE,135,2.2,3.8,90,0.00,,,0.07,,2014-11-24 11:33:00,
2014-11-24 06:39:00,58.1,53.9,29.39,SE,135,2.2,3.8,86,0.00,,,0.07,,2014-11-24 11:39:00,
2014-11-24 06:45:00,58.3,53.5,29.39,South,180,0.7,1.6,84,0.00,,,0.07,,2014-11-24 11:45:00,
2014-11-24 06:50:00,58.3,53.5,29.39,South,180,1.6,2.2,84,0.00,,,0.07,,2014-11-24 11:50:00,
2014-11-24 06:56:00,58.5,53.3,29.39,SE,135,3.1,5.4,83,0.00,,,0.07,,2014-11-24 11:56:00,
2014-11-24 07:02:00,58.5,53.3,29.39,South,180,2.2,3.8,83,0.00,,,0.07,,2014-11-24 12:02:00,
2014-11-24 07:07:00,58.5,53.3,29.39,East,90,0.7,2.2,83,0.00,,,0.07,,2014-11-24 12:07:00,
2014-11-24 07:13:00,58.3,53.1,29.39,SW,225,0.0,0.7,83,0.00,,,0.07,,2014-11-24 12:13:00,
2014-11-24 07:19:00,57.7,53.3,29.39,NW,315,0.0,0.7,85,0.00,,,0.07,,2014-11-24 12:19:00,
2014-11-24 07:24:00,57.4,52.9,29.38,South,180,0.0,1.6,85,0.00,,,0.07,,2014-11-24 12:24:00,
2014-11-24 07:30:00,57.4,53.2,29.39,South,180,1.6,3.1,86,0.00,,,0.07,,2014-11-24 12:30:00,
2014-11-24 07:36:00,57.6,53.4,29.39,East,90,1.6,2.2,86,0.00,,,0.07,,2014-11-24 12:36:00,
2014-11-24 07:41:00,57.6,53.7,29.39,South,180,1.6,3.1,87,0.01,,,0.08,,2014-11-24 12:41:00,